createdAt,value
2019-01-18T00:00:13.349Z,21.03
2019-01-18T00:02:42.139Z,23.33
2019-01-18T00:05:11.133Z,19.43
2019-01-18T00:07:40.022Z,19.00
2019-01-18T00:10:10.347Z,21.43
2019-01-18T00:12:39.132Z,21.00
2019-01-18T00:15:10.317Z,20.53
2019-01-18T00:17:39.058Z,18.23
2019-01-18T00:20:13.382Z,23.70
2019-01-18T00:22:42.274Z,19.27
2019-01-18T00:25:11.059Z,21.73
2019-01-18T00:27:39.792Z,22.30
2019-01-18T00:30:17.234Z,19.30
2019-01-18T00:32:46.024Z,23.87
2019-01-18T00:35:14.915Z,20.27
2019-01-18T00:37:44.029Z,17.50
2019-01-18T00:40:18.123Z,18.53
2019-01-18T00:42:46.861Z,16.43
2019-01-18T00:45:17.756Z,21.73
2019-01-18T00:47:46.536Z,17.33
2019-01-18T00:50:17.577Z,15.70
2019-01-18T00:52:46.468Z,14.70
2019-01-18T00:55:15.361Z,19.13
2019-01-18T00:57:44.455Z,17.27
2019-01-18T01:00:25.120Z,16.97
2019-01-18T01:02:54.214Z,19.73
2019-01-18T01:05:23.997Z,17.80
2019-01-18T01:07:53.022Z,16.17
2019-01-18T01:10:21.809Z,16.23
2019-01-18T01:12:50.547Z,15.73
2019-01-18T01:15:22.939Z,15.30
2019-01-18T01:17:51.756Z,16.07
2019-01-18T01:20:22.188Z,13.77
2019-01-18T01:22:51.995Z,16.07
2019-01-18T01:25:20.928Z,14.37
2019-01-18T01:27:50.086Z,14.30
2019-01-18T01:30:21.562Z,14.07
2019-01-18T01:32:50.605Z,14.90
2019-01-18T01:35:19.724Z,14.80
2019-01-18T01:37:48.923Z,14.47
2019-01-18T01:40:20.358Z,14.97
2019-01-18T01:42:49.162Z,17.07
2019-01-18T01:45:18.443Z,15.63
2019-01-18T01:47:47.249Z,14.03
2019-01-18T01:50:18.885Z,14.00
2019-01-18T01:52:48.099Z,13.23
2019-01-18T01:55:16.847Z,12.50
2019-01-18T01:57:45.677Z,12.97
2019-01-18T02:00:19.954Z,10.87
2019-01-18T02:02:48.784Z,12.40
2019-01-18T02:05:17.774Z,11.17
2019-01-18T02:07:46.872Z,11.40
2019-01-18T02:10:17.973Z,10.53
2019-01-18T02:12:46.905Z,14.20
2019-01-18T02:15:17.993Z,12.93
2019-01-18T02:17:46.843Z,10.47
2019-01-18T02:20:17.782Z,10.93
2019-01-18T02:22:46.963Z,12.33
2019-01-18T02:25:15.860Z,12.73
2019-01-18T02:27:45.402Z,10.73
2019-01-18T02:30:26.185Z,11.70
2019-01-18T02:32:55.130Z,12.27
2019-01-18T02:35:24.121Z,10.43
2019-01-18T02:37:53.237Z,14.20
2019-01-18T02:40:22.111Z,11.13
2019-01-18T02:42:50.895Z,11.33
2019-01-18T02:45:21.752Z,11.93
2019-01-18T02:47:50.520Z,10.13
2019-01-18T02:50:19.562Z,12.37
2019-01-18T02:52:48.400Z,13.27
2019-01-18T02:55:17.610Z,12.37
2019-01-18T02:57:46.387Z,11.50
2019-01-18T03:00:20.296Z,14.80
2019-01-18T03:02:49.392Z,11.20
2019-01-18T03:05:21.355Z,11.17
2019-01-18T03:07:50.460Z,12.03
2019-01-18T03:10:22.210Z,14.70
2019-01-18T03:12:51.020Z,13.87
2019-01-18T03:15:20.026Z,11.00
2019-01-18T03:17:48.779Z,11.17
2019-01-18T03:20:20.064Z,12.50
2019-01-18T03:22:48.915Z,12.97
2019-01-18T03:25:20.349Z,13.43
2019-01-18T03:27:49.081Z,12.73
2019-01-18T03:30:20.611Z,13.00
2019-01-18T03:32:49.825Z,13.13
2019-01-18T03:35:20.442Z,15.63
2019-01-18T03:37:49.427Z,13.40
2019-01-18T03:40:20.177Z,14.80
2019-01-18T03:42:49.510Z,15.53
2019-01-18T03:45:19.958Z,14.77
2019-01-18T03:47:48.921Z,15.23
2019-01-18T03:50:22.660Z,12.60
2019-01-18T03:52:51.472Z,13.63
2019-01-18T03:55:20.365Z,11.77
2019-01-18T03:57:49.159Z,13.53
2019-01-18T04:00:26.327Z,14.53
2019-01-18T04:02:54.503Z,15.43
2019-01-18T04:05:23.506Z,14.07
2019-01-18T04:07:52.395Z,15.00
2019-01-18T04:10:22.313Z,12.80
2019-01-18T04:12:51.405Z,18.83
2019-01-18T04:15:23.064Z,22.37
2019-01-18T04:17:52.050Z,24.90
2019-01-18T04:20:21.994Z,23.57
2019-01-18T04:22:50.878Z,23.63
2019-01-18T04:25:24.358Z,20.70
2019-01-18T04:27:53.149Z,21.07
2019-01-18T04:30:23.411Z,18.73
2019-01-18T04:32:52.461Z,23.60
2019-01-18T04:35:21.205Z,19.67
2019-01-18T04:37:50.045Z,19.43
2019-01-18T04:40:24.151Z,22.17
2019-01-18T04:42:52.939Z,19.43
2019-01-18T04:45:22.135Z,22.40
2019-01-18T04:47:51.027Z,20.20
2019-01-18T04:50:22.209Z,21.97
2019-01-18T04:52:51.069Z,21.33
2019-01-18T04:55:19.846Z,17.60
2019-01-18T04:57:48.639Z,24.87
2019-01-18T05:00:23.057Z,18.60
2019-01-18T05:02:51.810Z,129.60
2019-01-18T05:05:21.058Z,84.50
2019-01-18T05:07:49.946Z,76.83
2019-01-18T05:10:27.528Z,222.20
2019-01-18T05:12:56.520Z,94.93
2019-01-18T05:15:30.835Z,73.13
2019-01-18T05:17:59.736Z,49.23
2019-01-18T05:20:28.720Z,45.00
2019-01-18T05:22:57.614Z,51.73
2019-01-18T05:25:26.399Z,41.93
2019-01-18T05:27:55.290Z,44.33
2019-01-18T05:30:26.228Z,38.47
2019-01-18T05:32:55.077Z,36.20
2019-01-18T05:35:24.185Z,37.47
2019-01-18T05:37:53.105Z,40.80
2019-01-18T05:40:23.160Z,45.80
2019-01-18T05:42:52.527Z,57.90
2019-01-18T05:45:22.794Z,56.70
2019-01-18T05:47:52.034Z,48.70
2019-01-18T05:50:23.736Z,49.27
2019-01-18T05:52:52.500Z,44.73
2019-01-18T05:55:21.379Z,46.83
2019-01-18T05:57:50.380Z,46.90
2019-01-18T06:00:29.187Z,46.33
2019-01-18T06:02:58.398Z,47.37
2019-01-18T06:05:28.036Z,53.37
2019-01-18T06:07:56.893Z,52.50
2019-01-18T06:10:25.682Z,51.77
2019-01-18T06:12:54.471Z,60.33
2019-01-18T06:15:23.218Z,55.77
2019-01-18T06:17:52.351Z,49.03
2019-01-18T06:20:21.348Z,54.80
2019-01-18T06:22:50.129Z,56.37
2019-01-18T06:25:20.767Z,116.33
2019-01-18T06:27:49.659Z,73.73
2019-01-18T06:30:19.900Z,99.80
2019-01-18T06:32:48.767Z,71.43
2019-01-18T06:35:17.904Z,77.63
2019-01-18T06:37:46.640Z,76.87
2019-01-18T06:40:20.663Z,82.53
2019-01-18T06:42:49.399Z,94.30
2019-01-18T06:45:21.103Z,84.23
2019-01-18T06:47:50.094Z,76.30
2019-01-18T06:50:20.032Z,71.60
2019-01-18T06:52:48.795Z,81.17
2019-01-18T06:55:17.739Z,98.23
2019-01-18T06:57:46.469Z,99.53
2019-01-18T07:00:20.997Z,115.07
2019-01-18T07:02:50.606Z,98.80
2019-01-18T07:05:19.496Z,119.30
2019-01-18T07:07:48.537Z,106.93
2019-01-18T07:10:20.908Z,119.53
2019-01-18T07:12:49.959Z,120.07
2019-01-18T07:15:19.109Z,100.23
2019-01-18T07:17:47.947Z,107.27
2019-01-18T07:20:19.130Z,91.27
2019-01-18T07:22:48.406Z,91.10
2019-01-18T07:25:25.466Z,68.23
2019-01-18T07:27:54.257Z,67.30
2019-01-18T07:30:28.269Z,71.43
2019-01-18T07:32:58.812Z,90.70
2019-01-18T07:35:27.585Z,74.43
2019-01-18T07:37:56.375Z,67.50
2019-01-18T07:40:26.200Z,82.87
2019-01-18T07:42:55.079Z,57.10
2019-01-18T07:45:26.388Z,61.93
2019-01-18T07:47:55.211Z,60.17
2019-01-18T07:50:24.644Z,55.83
2019-01-18T07:52:53.914Z,59.83
2019-01-18T07:55:23.012Z,53.40
2019-01-18T07:57:51.770Z,59.00
2019-01-18T08:00:23.112Z,48.77
2019-01-18T08:02:52.143Z,55.63
2019-01-18T08:05:22.082Z,56.83
2019-01-18T08:07:51.032Z,61.70
2019-01-18T08:10:24.462Z,54.10
2019-01-18T08:12:53.443Z,47.27
2019-01-18T08:15:24.578Z,46.53
2019-01-18T08:17:53.361Z,51.77
2019-01-18T08:20:23.999Z,46.27
2019-01-18T08:22:52.894Z,47.00
2019-01-18T08:25:21.951Z,41.03
2019-01-18T08:27:50.681Z,36.00
2019-01-18T08:30:24.330Z,35.57
2019-01-18T08:32:53.162Z,43.10
2019-01-18T08:35:22.904Z,32.57
2019-01-18T08:37:51.773Z,36.23
2019-01-18T08:40:29.767Z,85.23
2019-01-18T08:42:58.522Z,197.67
2019-01-18T08:45:30.216Z,205.10
2019-01-18T08:47:59.122Z,208.07
2019-01-18T08:50:27.892Z,203.97
2019-01-18T08:52:56.742Z,263.47
2019-01-18T08:55:25.676Z,226.07
2019-01-18T08:57:54.417Z,202.70
2019-01-18T09:00:28.764Z,198.60
2019-01-18T09:02:57.774Z,196.87
2019-01-18T09:05:27.729Z,167.33
2019-01-18T09:07:56.578Z,152.00
2019-01-18T09:10:31.323Z,158.30
2019-01-18T09:13:00.230Z,174.27
2019-01-18T09:15:28.981Z,174.90
2019-01-18T09:17:57.976Z,166.13
2019-01-18T09:20:28.823Z,186.03
2019-01-18T09:22:57.605Z,199.30
2019-01-18T09:25:26.797Z,188.80
2019-01-18T09:27:55.825Z,186.40
2019-01-18T09:30:26.783Z,147.83
2019-01-18T09:32:55.676Z,160.73
2019-01-18T09:35:25.739Z,153.73
2019-01-18T09:37:55.876Z,149.13
2019-01-18T09:40:27.322Z,141.33
2019-01-18T09:42:56.058Z,27.50
2019-01-18T09:45:24.891Z,23.80
2019-01-18T09:47:53.785Z,24.97
2019-01-18T09:50:24.926Z,18.10
2019-01-18T09:52:54.022Z,20.97
2019-01-18T09:55:22.905Z,15.80
2019-01-18T09:57:51.690Z,12.93
2019-01-18T10:00:26.172Z,16.17
2019-01-18T10:02:55.107Z,12.80
2019-01-18T10:05:23.998Z,13.90
2019-01-18T10:07:52.784Z,11.27
2019-01-18T10:10:23.291Z,7.83
2019-01-18T10:12:52.400Z,11.93
2019-01-18T10:15:33.175Z,10.17
2019-01-18T10:18:01.963Z,10.07
2019-01-18T10:20:30.702Z,11.63
2019-01-18T10:22:59.872Z,9.93
2019-01-18T10:25:28.638Z,7.60
2019-01-18T10:27:57.441Z,8.80
2019-01-18T10:30:29.696Z,9.97
2019-01-18T10:32:58.483Z,17.37
2019-01-18T10:35:28.124Z,11.83
2019-01-18T10:37:57.394Z,12.50
2019-01-18T10:40:26.181Z,9.23
2019-01-18T10:42:55.633Z,12.47
2019-01-18T10:45:25.187Z,8.03
2019-01-18T10:47:53.996Z,11.37
2019-01-18T10:50:25.244Z,10.20
2019-01-18T10:52:54.115Z,15.47
2019-01-18T10:55:22.902Z,13.20
2019-01-18T10:57:51.660Z,12.20
2019-01-18T11:00:23.362Z,7.97
2019-01-18T11:02:52.791Z,8.83
2019-01-18T11:05:22.634Z,10.03
2019-01-18T11:07:51.653Z,8.83
2019-01-18T11:10:20.597Z,8.80
2019-01-18T11:12:49.639Z,9.73
2019-01-18T11:15:22.530Z,12.60
2019-01-18T11:17:51.313Z,12.97
2019-01-18T11:20:26.068Z,13.33
2019-01-18T11:22:56.401Z,7.03
2019-01-18T11:25:31.573Z,7.53
2019-01-18T11:27:56.192Z,9.43
2019-01-18T11:30:24.929Z,9.03
2019-01-18T11:32:53.769Z,10.50
2019-01-18T11:35:22.659Z,8.50
2019-01-18T11:37:51.596Z,10.67
2019-01-18T11:40:22.235Z,12.57
2019-01-18T11:42:51.316Z,8.10
2019-01-18T11:45:20.560Z,11.07
2019-01-18T11:47:49.572Z,10.90
2019-01-18T11:50:24.336Z,8.50
2019-01-18T11:52:53.306Z,9.00
2019-01-18T11:55:22.084Z,10.27
2019-01-18T11:57:50.933Z,10.33
2019-01-18T12:00:25.387Z,7.80
2019-01-18T12:02:54.223Z,11.40
2019-01-18T12:05:23.276Z,11.37
2019-01-18T12:07:52.065Z,8.77
2019-01-18T12:10:29.003Z,10.87
2019-01-18T12:12:57.833Z,12.53
2019-01-18T12:15:26.902Z,11.53
2019-01-18T12:17:56.122Z,12.33
2019-01-18T12:20:27.574Z,8.63
2019-01-18T12:22:56.416Z,12.60
2019-01-18T12:25:25.870Z,14.77
2019-01-18T12:27:54.862Z,11.30
2019-01-18T12:30:32.060Z,8.23
2019-01-18T12:33:00.845Z,8.63
2019-01-18T12:35:29.858Z,9.20
2019-01-18T12:37:58.717Z,8.07
2019-01-18T12:40:27.510Z,11.27
2019-01-18T12:42:57.858Z,13.87
2019-01-18T12:45:27.440Z,12.17
2019-01-18T12:47:56.188Z,15.13
2019-01-18T12:50:31.023Z,20.70
2019-01-18T12:53:00.074Z,17.87
2019-01-18T12:55:28.825Z,14.33
2019-01-18T12:57:57.571Z,21.20
2019-01-18T13:00:28.263Z,17.27
2019-01-18T13:02:57.404Z,15.70
2019-01-18T13:05:28.941Z,21.93
2019-01-18T13:07:57.754Z,25.90
2019-01-18T13:10:26.492Z,38.97
2019-01-18T13:12:55.275Z,41.27
2019-01-18T13:15:30.309Z,32.37
2019-01-18T13:18:00.426Z,27.33
2019-01-18T13:20:29.213Z,28.77
2019-01-18T13:22:58.118Z,29.60
2019-01-18T13:25:26.851Z,23.83
2019-01-18T13:27:59.749Z,25.13
2019-01-18T13:30:26.209Z,26.03
2019-01-18T13:32:54.997Z,26.87
2019-01-18T13:35:23.755Z,25.73
2019-01-18T13:37:52.802Z,27.30
2019-01-18T13:40:22.795Z,24.00
2019-01-18T13:42:51.584Z,23.80
2019-01-18T13:45:24.419Z,28.37
2019-01-18T13:47:51.251Z,29.43
2019-01-18T13:50:20.697Z,23.13
2019-01-18T13:52:49.604Z,25.83
2019-01-18T13:55:21.293Z,22.77
2019-01-18T13:57:50.048Z,22.60
2019-01-18T14:00:18.937Z,26.93
2019-01-18T14:02:48.581Z,23.93
2019-01-18T14:05:17.643Z,26.03
2019-01-18T14:07:46.534Z,25.00
2019-01-18T14:10:20.682Z,25.57
2019-01-18T14:12:49.533Z,31.13
2019-01-18T14:15:22.993Z,33.07
2019-01-18T14:17:52.032Z,33.47
2019-01-18T14:20:28.493Z,29.00
2019-01-18T14:22:57.492Z,29.13
2019-01-18T14:25:26.276Z,34.17
2019-01-18T14:27:55.476Z,27.97
2019-01-18T14:30:26.214Z,28.17
2019-01-18T14:32:56.015Z,29.30
2019-01-18T14:35:25.474Z,28.73
2019-01-18T14:37:54.435Z,29.30
2019-01-18T14:40:23.240Z,32.53
2019-01-18T14:42:53.530Z,35.77
2019-01-18T14:45:31.432Z,34.00
2019-01-18T14:48:00.304Z,28.90
2019-01-18T14:50:29.045Z,30.33
2019-01-18T14:52:57.801Z,34.40
2019-01-18T14:55:26.710Z,28.20
2019-01-18T14:57:55.780Z,26.30
2019-01-18T15:00:31.380Z,30.50
2019-01-18T15:03:02.518Z,30.43
2019-01-18T15:05:30.888Z,31.60
2019-01-18T15:07:59.945Z,40.47
2019-01-18T15:10:28.840Z,44.90
2019-01-18T15:13:06.122Z,42.27
2019-01-18T15:15:35.054Z,50.13
2019-01-18T15:18:04.110Z,53.13
2019-01-18T15:20:33.901Z,53.00
2019-01-18T15:23:02.716Z,64.43
2019-01-18T15:25:31.496Z,65.27
2019-01-18T15:28:01.041Z,63.47
2019-01-18T15:30:31.913Z,64.30
2019-01-18T15:33:00.900Z,64.57
2019-01-18T15:35:32.281Z,67.67
2019-01-18T15:38:01.030Z,59.00
2019-01-18T15:40:32.771Z,55.30
2019-01-18T15:43:02.111Z,61.37
2019-01-18T15:45:31.032Z,49.13
2019-01-18T15:47:59.971Z,44.73
2019-01-18T15:50:34.135Z,54.50
2019-01-18T15:53:03.017Z,48.30
2019-01-18T15:55:31.804Z,53.07
2019-01-18T15:58:00.694Z,48.17
2019-01-18T16:00:34.704Z,53.30
2019-01-18T16:03:03.437Z,60.67
2019-01-18T16:05:32.519Z,53.37
2019-01-18T16:08:01.272Z,57.07
2019-01-18T16:10:30.062Z,59.27
2019-01-18T16:12:59.172Z,67.73
2019-01-18T16:15:34.195Z,67.13
2019-01-18T16:18:04.625Z,69.70
2019-01-18T16:20:33.410Z,58.97
2019-01-18T16:23:02.152Z,62.57
2019-01-18T16:25:31.051Z,68.97
2019-01-18T16:27:59.874Z,67.27
2019-01-18T16:30:28.611Z,69.43
2019-01-18T16:32:58.274Z,71.50
2019-01-18T16:35:27.576Z,74.00
2019-01-18T16:37:56.605Z,61.10
2019-01-18T16:40:28.216Z,54.07
2019-01-18T16:43:00.083Z,57.07
2019-01-18T16:45:28.896Z,56.80
2019-01-18T16:47:57.758Z,50.70
2019-01-18T16:50:26.545Z,45.30
2019-01-18T16:52:55.538Z,46.87
2019-01-18T16:55:24.329Z,45.43
2019-01-18T16:57:53.113Z,44.27
2019-01-18T17:00:25.247Z,40.30
2019-01-18T17:02:54.275Z,43.40
2019-01-18T17:05:23.016Z,37.13
2019-01-18T17:07:51.748Z,37.27
2019-01-18T17:10:20.648Z,31.83
2019-01-18T17:12:49.391Z,27.90
2019-01-18T17:15:18.215Z,22.03
2019-01-18T17:17:47.214Z,23.47
2019-01-18T17:20:24.397Z,25.47
2019-01-18T17:22:53.187Z,21.23
2019-01-18T17:25:21.972Z,24.90
2019-01-18T17:27:50.710Z,30.67
2019-01-18T17:30:23.234Z,28.13
2019-01-18T17:32:51.973Z,26.63
2019-01-18T17:35:32.586Z,22.00
2019-01-18T17:38:16.494Z,19.63
2019-01-18T17:40:51.566Z,20.67
2019-01-18T17:43:39.951Z,18.00
2019-01-18T17:46:17.934Z,21.00
2019-01-18T17:49:04.936Z,20.10
2019-01-18T17:51:49.431Z,16.23
2019-01-18T17:54:23.808Z,17.70
2019-01-18T17:56:58.587Z,26.20
2019-01-18T17:59:51.055Z,28.60
2019-01-18T18:02:34.454Z,26.97
2019-01-18T18:05:15.292Z,27.63
2019-01-18T18:08:23.622Z,29.17
2019-01-18T18:11:05.083Z,24.50
2019-01-18T18:14:01.721Z,25.57
2019-01-18T18:16:33.478Z,30.97
2019-01-18T18:19:17.541Z,37.47
2019-01-18T18:21:51.844Z,33.50
2019-01-18T18:24:38.962Z,38.07
2019-01-18T18:27:22.594Z,29.80
2019-01-18T18:30:00.258Z,33.27
2019-01-18T18:32:44.135Z,32.97
2019-01-18T18:35:22.036Z,30.93
2019-01-18T18:37:53.693Z,33.70
2019-01-18T18:40:31.594Z,30.73
2019-01-18T18:43:03.355Z,29.07
2019-01-18T18:45:53.562Z,30.53
2019-01-18T18:48:34.311Z,27.97
2019-01-18T18:51:27.398Z,30.17
2019-01-18T18:54:21.682Z,29.37
2019-01-18T18:57:02.137Z,29.73
2019-01-18T18:59:42.586Z,28.20
2019-01-18T19:02:20.114Z,24.33
2019-01-18T19:04:54.762Z,25.93
2019-01-18T19:07:43.019Z,29.90
2019-01-18T19:10:26.474Z,30.00
2019-01-18T19:13:23.765Z,29.57
2019-01-18T19:16:01.888Z,35.07
2019-01-18T19:18:39.652Z,31.73
2019-01-18T19:21:23.578Z,26.43
2019-01-18T19:24:10.718Z,23.87
2019-01-18T19:27:15.536Z,31.00
2019-01-18T19:29:53.125Z,30.97
2019-01-18T19:32:33.687Z,22.97
2019-01-18T19:35:28.387Z,21.77
2019-01-18T19:38:18.084Z,18.77
2019-01-18T19:41:10.606Z,18.23
2019-01-18T19:43:54.581Z,17.13
2019-01-18T19:46:42.793Z,23.60
2019-01-18T19:49:34.007Z,21.43
2019-01-18T19:52:11.709Z,22.10
2019-01-18T19:54:55.145Z,20.93
2019-01-18T19:57:41.845Z,22.03
2019-01-18T20:00:25.584Z,26.40
2019-01-18T20:03:03.383Z,29.17
2019-01-18T20:05:44.359Z,23.43
2019-01-18T20:08:22.053Z,26.83
2019-01-18T20:11:02.415Z,25.00
2019-01-18T20:13:57.314Z,24.23
2019-01-18T20:16:47.105Z,19.73
2019-01-18T20:19:27.869Z,15.37
2019-01-18T20:22:02.488Z,19.93
2019-01-18T20:25:07.388Z,16.50
2019-01-18T20:27:48.186Z,15.07
2019-01-18T20:30:22.713Z,14.75
2019-01-18T20:32:57.220Z,12.83
2019-01-18T20:35:41.005Z,14.80
2019-01-18T20:38:30.395Z,14.47
2019-01-18T20:41:21.509Z,13.80
2019-01-18T20:44:04.994Z,15.30
2019-01-18T20:46:55.105Z,15.47
2019-01-18T20:49:29.576Z,15.53
2019-01-18T20:52:03.905Z,13.70
2019-01-18T20:54:38.262Z,14.33
2019-01-18T20:57:21.883Z,16.53
2019-01-18T20:59:59.162Z,15.20
2019-01-18T21:02:55.084Z,14.73
2019-01-18T21:05:29.686Z,14.23
2019-01-18T21:08:07.208Z,14.50
2019-01-18T21:10:53.508Z,16.07
2019-01-18T21:13:28.435Z,15.03
2019-01-18T21:16:19.546Z,18.57
2019-01-18T21:19:17.298Z,20.83
2019-01-18T21:22:15.183Z,23.80
2019-01-18T21:24:56.060Z,23.20
2019-01-18T21:27:42.966Z,18.30
2019-01-18T21:30:29.700Z,19.90
2019-01-18T21:33:19.187Z,15.73
2019-01-18T21:35:54.004Z,15.47
2019-01-18T21:38:25.737Z,14.87
2019-01-18T21:41:00.769Z,13.50
2019-01-18T21:43:53.012Z,15.40
2019-01-18T21:46:27.783Z,12.40
2019-01-18T21:49:05.171Z,11.77
2019-01-18T21:51:53.783Z,12.53
2019-01-18T21:54:42.228Z,14.20
2019-01-18T21:57:30.576Z,15.10
2019-01-18T22:00:18.738Z,9.13
2019-01-18T22:02:59.830Z,11.43
2019-01-18T22:05:37.204Z,10.77
2019-01-18T22:08:29.979Z,10.97
2019-01-18T22:11:07.733Z,8.13
2019-01-18T22:13:48.465Z,11.10
2019-01-18T22:16:39.719Z,11.37
2019-01-18T22:19:32.769Z,9.23
2019-01-18T22:22:10.569Z,8.47
2019-01-18T22:25:09.770Z,10.77
2019-01-18T22:27:44.398Z,10.57
2019-01-18T22:30:22.135Z,10.57
2019-01-18T22:33:05.526Z,13.13
2019-01-18T22:35:49.374Z,10.90
2019-01-18T22:38:35.971Z,9.13
2019-01-18T22:41:10.471Z,9.67
2019-01-18T22:44:09.283Z,8.73
2019-01-18T22:46:43.603Z,8.30
2019-01-18T22:49:40.352Z,8.47
2019-01-18T22:52:15.092Z,10.10
2019-01-18T22:55:01.732Z,8.80
2019-01-18T22:57:39.585Z,8.50
2019-01-18T23:00:47.793Z,8.50
2019-01-18T23:03:19.550Z,7.13
2019-01-18T23:06:06.387Z,7.67
2019-01-18T23:08:57.897Z,8.63
2019-01-18T23:11:29.539Z,12.43
2019-01-18T23:14:28.539Z,11.47
2019-01-18T23:17:29.200Z,10.93
2019-01-18T23:20:17.517Z,12.37
2019-01-18T23:22:54.906Z,10.33
2019-01-18T23:25:26.654Z,11.67
2019-01-18T23:28:13.577Z,11.53
2019-01-18T23:30:54.450Z,11.30
2019-01-18T23:33:34.820Z,11.73
2019-01-18T23:36:06.890Z,12.23
2019-01-18T23:39:12.118Z,10.47
2019-01-18T23:41:50.118Z,11.53
2019-01-18T23:44:38.671Z,12.30
2019-01-18T23:47:32.140Z,13.70
2019-01-18T23:50:03.898Z,11.70
2019-01-18T23:52:55.421Z,9.53
2019-01-18T23:55:27.255Z,8.57
2019-01-18T23:58:08.067Z,11.00
